createdAt,value
2023-02-15T00:02:02.285Z,31.25
2023-02-15T00:04:47.750Z,31.65
2023-02-15T00:07:19.965Z,29.52
2023-02-15T00:09:47.927Z,29.92
2023-02-15T00:12:16.204Z,30.88
2023-02-15T00:14:43.403Z,30.02
2023-02-15T00:17:10.523Z,29.70
2023-02-15T00:19:37.464Z,29.77
2023-02-15T00:22:04.490Z,31.77
2023-02-15T00:24:31.526Z,29.67
2023-02-15T00:26:58.589Z,30.90
2023-02-15T00:29:26.112Z,29.92
2023-02-15T00:31:53.579Z,29.85
2023-02-15T00:34:23.548Z,29.05
2023-02-15T00:36:51.108Z,31.48
2023-02-15T00:39:19.487Z,29.98
2023-02-15T00:41:48.012Z,29.90
2023-02-15T00:44:15.711Z,28.90
2023-02-15T00:46:42.993Z,29.70
2023-02-15T00:49:10.782Z,30.83
2023-02-15T00:51:37.840Z,30.55
2023-02-15T00:54:04.795Z,28.95
2023-02-15T00:56:31.793Z,29.98
2023-02-15T00:58:58.808Z,29.27
2023-02-15T01:01:26.904Z,28.83
2023-02-15T01:03:54.347Z,28.23
2023-02-15T01:06:21.695Z,29.63
2023-02-15T01:08:49.320Z,30.00
2023-02-15T01:11:23.458Z,28.90
2023-02-15T01:13:58.699Z,28.15
2023-02-15T01:16:28.923Z,29.63
2023-02-15T01:18:56.263Z,28.42
2023-02-15T01:21:25.902Z,28.38
2023-02-15T01:23:53.315Z,27.98
2023-02-15T01:26:20.505Z,27.50
2023-02-15T01:28:48.030Z,29.38
2023-02-15T01:31:18.195Z,28.98
2023-02-15T01:33:45.480Z,29.17
2023-02-15T01:36:12.552Z,28.92
2023-02-15T01:38:41.083Z,28.83
2023-02-15T01:41:27.423Z,29.40
2023-02-15T01:44:00.135Z,28.52
2023-02-15T01:46:39.210Z,28.02
2023-02-15T01:49:19.111Z,28.27
2023-02-15T01:51:49.920Z,28.52
2023-02-15T01:54:25.952Z,30.05
2023-02-15T01:56:55.881Z,27.95
2023-02-15T01:59:25.189Z,29.20
2023-02-15T02:01:58.903Z,28.90
2023-02-15T02:06:59.604Z,27.75
2023-02-15T02:09:27.419Z,27.48
2023-02-15T02:11:55.531Z,29.13
2023-02-15T02:14:23.825Z,28.45
2023-02-15T02:16:56.844Z,28.23
2023-02-15T02:19:38.868Z,29.60
2023-02-15T02:22:27.572Z,29.08
2023-02-15T02:25:18.982Z,29.50
2023-02-15T02:27:45.892Z,29.75
2023-02-15T02:30:30.666Z,28.65
2023-02-15T02:33:12.725Z,29.70
2023-02-15T02:35:53.842Z,28.50
2023-02-15T02:38:45.315Z,29.17
2023-02-15T02:41:30.140Z,28.45
2023-02-15T02:44:05.270Z,27.95
2023-02-15T02:46:44.028Z,28.83
2023-02-15T02:49:10.996Z,29.67
2023-02-15T02:51:37.924Z,29.45
2023-02-15T02:54:07.718Z,28.80
2023-02-15T02:56:44.337Z,27.60
2023-02-15T02:59:19.853Z,29.88
2023-02-15T03:02:28.756Z,28.60
2023-02-15T03:05:04.350Z,28.20
2023-02-15T03:07:32.752Z,28.80
2023-02-15T03:10:01.948Z,29.25
2023-02-15T03:12:41.324Z,29.02
2023-02-15T03:15:19.161Z,30.38
2023-02-15T03:18:03.845Z,29.20
2023-02-15T03:20:33.713Z,27.63
2023-02-15T03:23:13.967Z,28.58
2023-02-15T03:25:48.314Z,27.90
2023-02-15T03:28:21.156Z,27.63
2023-02-15T03:30:53.272Z,29.33
2023-02-15T03:33:22.923Z,28.23
2023-02-15T03:35:58.942Z,30.80
2023-02-15T03:38:46.126Z,27.50
2023-02-15T03:41:15.790Z,29.73
2023-02-15T03:44:00.703Z,29.67
2023-02-15T03:46:53.644Z,29.83
2023-02-15T03:49:29.810Z,27.15
2023-02-15T03:52:00.042Z,29.17
2023-02-15T03:54:47.571Z,28.65
2023-02-15T03:57:46.370Z,27.50
2023-02-15T04:00:39.079Z,27.88
2023-02-15T04:03:34.829Z,29.23
2023-02-15T04:06:03.353Z,27.63
2023-02-15T04:08:49.239Z,28.20
2023-02-15T04:11:16.214Z,29.65
2023-02-15T04:13:43.190Z,26.85
2023-02-15T04:16:10.452Z,28.38
2023-02-15T04:18:58.347Z,29.15
2023-02-15T04:21:45.312Z,28.52
2023-02-15T04:24:31.366Z,26.60
2023-02-15T04:26:58.745Z,27.67
2023-02-15T04:29:27.832Z,28.95
2023-02-15T04:31:56.762Z,28.70
2023-02-15T04:34:24.194Z,29.48
2023-02-15T04:36:51.495Z,28.88
2023-02-15T04:39:19.497Z,28.15
2023-02-15T04:41:47.710Z,27.55
2023-02-15T04:44:14.697Z,28.05
2023-02-15T04:46:41.646Z,27.90
2023-02-15T04:49:09.879Z,27.90
2023-02-15T04:51:37.109Z,29.40
2023-02-15T04:54:04.190Z,28.40
2023-02-15T04:56:32.275Z,28.65
2023-02-15T04:58:59.289Z,27.65
2023-02-15T05:01:26.439Z,29.08
2023-02-15T05:03:53.561Z,30.23
2023-02-15T05:06:20.545Z,29.95
2023-02-15T05:08:47.630Z,27.27
2023-02-15T05:11:14.651Z,27.23
2023-02-15T05:13:41.846Z,27.45
2023-02-15T05:16:09.535Z,28.35
2023-02-15T05:18:36.550Z,27.80
2023-02-15T05:21:03.761Z,27.63
2023-02-15T05:23:30.946Z,27.67
2023-02-15T05:26:16.287Z,28.13
2023-02-15T05:28:43.306Z,28.00
2023-02-15T05:31:18.459Z,27.67
2023-02-15T05:33:46.245Z,29.45
2023-02-15T05:36:13.661Z,28.38
2023-02-15T05:38:40.771Z,28.23
2023-02-15T05:41:09.264Z,28.27
2023-02-15T05:43:36.898Z,28.05
2023-02-15T05:46:05.271Z,28.27
2023-02-15T05:48:33.111Z,28.77
2023-02-15T05:51:02.645Z,30.10
2023-02-15T05:53:31.221Z,28.45
2023-02-15T05:56:01.645Z,28.92
2023-02-15T05:58:34.837Z,28.02
2023-02-15T06:01:12.396Z,24.45
2023-02-15T06:03:40.043Z,26.75
2023-02-15T06:06:07.624Z,30.02
2023-02-15T06:08:35.710Z,29.25
2023-02-15T06:11:03.139Z,26.73
2023-02-15T06:13:30.241Z,27.80
2023-02-15T06:15:57.265Z,28.83
2023-02-15T06:18:24.435Z,27.38
2023-02-15T06:20:51.836Z,27.02
2023-02-15T06:23:19.036Z,27.63
2023-02-15T06:25:47.081Z,28.80
2023-02-15T06:28:14.481Z,28.17
2023-02-15T06:30:41.552Z,28.88
2023-02-15T06:33:08.742Z,28.50
2023-02-15T06:35:35.780Z,29.42
2023-02-15T06:38:02.849Z,29.02
2023-02-15T06:40:29.839Z,27.35
2023-02-15T06:42:56.855Z,28.45
2023-02-15T06:45:23.987Z,30.80
2023-02-15T06:47:51.019Z,27.40
2023-02-15T06:50:18.076Z,28.33
2023-02-15T06:52:45.100Z,28.83
2023-02-15T06:55:12.068Z,30.80
2023-02-15T06:57:39.142Z,30.30
2023-02-15T07:00:07.213Z,30.25
2023-02-15T07:02:34.657Z,29.40
2023-02-15T07:05:01.801Z,35.00
2023-02-15T07:07:28.832Z,30.35
2023-02-15T07:09:55.768Z,28.83
2023-02-15T07:12:41.472Z,27.55
2023-02-15T07:15:10.261Z,29.08
2023-02-15T07:17:37.952Z,27.02
2023-02-15T07:20:08.947Z,28.05
2023-02-15T07:22:37.443Z,28.95
2023-02-15T07:25:09.570Z,26.80
2023-02-15T07:27:37.151Z,27.88
2023-02-15T07:30:06.153Z,27.48
2023-02-15T07:32:34.050Z,28.20
2023-02-15T07:35:01.339Z,29.50
2023-02-15T07:37:29.129Z,31.13
2023-02-15T07:39:56.242Z,32.10
2023-02-15T07:42:23.247Z,35.67
2023-02-15T07:44:50.336Z,28.63
2023-02-15T07:47:17.578Z,29.42
2023-02-15T07:49:44.519Z,29.13
2023-02-15T07:52:11.568Z,27.83
2023-02-15T07:54:38.562Z,28.02
2023-02-15T07:57:05.495Z,28.00
2023-02-15T07:59:32.470Z,26.90
2023-02-15T08:01:59.639Z,26.52
2023-02-15T08:04:26.583Z,26.90
2023-02-15T08:06:55.514Z,25.63
2023-02-15T08:09:22.929Z,26.55
2023-02-15T08:11:50.112Z,27.27
2023-02-15T08:14:21.545Z,27.10
2023-02-15T08:16:50.623Z,24.83
2023-02-15T08:19:20.094Z,28.48
2023-02-15T08:21:49.830Z,27.45
2023-02-15T08:24:19.494Z,26.13
2023-02-15T08:26:47.901Z,27.80
2023-02-15T08:29:17.252Z,26.73
2023-02-15T08:31:44.862Z,28.02
2023-02-15T08:34:15.470Z,26.75
2023-02-15T08:36:42.702Z,25.10
2023-02-15T08:39:09.785Z,26.08
2023-02-15T08:41:38.641Z,26.85
2023-02-15T08:44:07.920Z,25.92
2023-02-15T08:46:38.041Z,24.08
2023-02-15T08:49:05.777Z,23.77
2023-02-15T08:51:38.349Z,23.05
2023-02-15T08:54:10.966Z,24.27
2023-02-15T08:56:40.784Z,23.10
2023-02-15T08:59:11.788Z,22.98
2023-02-15T09:01:38.810Z,24.35
2023-02-15T09:04:11.034Z,25.45
2023-02-15T09:06:40.071Z,23.50
2023-02-15T09:09:08.609Z,23.20
2023-02-15T09:11:41.580Z,23.05
2023-02-15T09:14:14.665Z,24.30
2023-02-15T09:16:43.707Z,25.73
2023-02-15T09:19:10.773Z,25.63
2023-02-15T09:21:39.199Z,21.90
2023-02-15T09:24:09.671Z,22.70
2023-02-15T09:26:41.835Z,22.23
2023-02-15T09:29:10.222Z,21.60
2023-02-15T09:31:45.202Z,22.50
2023-02-15T09:34:14.478Z,22.17
2023-02-15T09:36:42.301Z,22.40
2023-02-15T09:39:24.933Z,23.40
2023-02-15T09:42:12.176Z,22.30
2023-02-15T09:44:58.186Z,23.58
2023-02-15T09:47:40.258Z,22.33
2023-02-15T09:50:31.394Z,23.55
2023-02-15T09:53:07.402Z,22.63
2023-02-15T09:55:46.376Z,25.27
2023-02-15T09:58:22.910Z,24.05
2023-02-15T10:00:56.074Z,24.23
2023-02-15T10:03:25.832Z,24.70
2023-02-15T10:06:19.904Z,28.52
2023-02-15T10:09:01.842Z,26.27
2023-02-15T10:11:40.698Z,24.42
2023-02-15T10:14:41.330Z,34.25
2023-02-15T10:17:29.071Z,32.00
2023-02-15T10:20:35.603Z,27.58
2023-02-15T10:23:17.349Z,35.45
2023-02-15T10:25:55.101Z,28.75
2023-02-15T10:28:47.738Z,30.25
2023-02-15T10:31:28.850Z,26.42
2023-02-15T10:34:20.487Z,24.98
2023-02-15T10:36:54.242Z,26.98
2023-02-15T10:39:45.720Z,25.75
2023-02-15T10:42:21.954Z,25.83
2023-02-15T10:45:13.264Z,27.23
2023-02-15T10:48:11.296Z,26.10
2023-02-15T10:50:40.980Z,28.40
2023-02-15T10:53:11.099Z,29.90
2023-02-15T10:55:46.230Z,28.48
2023-02-15T10:58:32.004Z,30.33
2023-02-15T11:01:11.369Z,26.70
2023-02-15T11:04:18.098Z,25.63
2023-02-15T11:06:52.356Z,23.48
2023-02-15T11:09:21.863Z,26.13
2023-02-15T11:11:55.022Z,28.13
2023-02-15T11:14:32.817Z,26.05
2023-02-15T11:17:07.245Z,26.83
2023-02-15T11:19:41.069Z,28.08
2023-02-15T11:22:10.829Z,25.63
2023-02-15T11:24:44.065Z,24.27
2023-02-15T11:27:13.768Z,24.92
2023-02-15T11:30:06.556Z,24.73
2023-02-15T11:32:50.356Z,23.70
2023-02-15T11:35:35.278Z,23.98
2023-02-15T11:38:19.869Z,23.98
2023-02-15T11:41:03.601Z,23.85
2023-02-15T11:43:58.705Z,23.63
2023-02-15T11:46:26.041Z,24.35
2023-02-15T11:48:53.192Z,24.23
2023-02-15T11:51:24.104Z,23.52
2023-02-15T11:53:52.338Z,24.08
2023-02-15T11:56:22.948Z,24.90
2023-02-15T11:59:01.114Z,24.38
2023-02-15T12:01:38.906Z,23.80
2023-02-15T12:04:08.351Z,24.73
2023-02-15T12:06:40.252Z,24.33
2023-02-15T12:09:31.163Z,24.83
2023-02-15T12:12:24.351Z,24.92
2023-02-15T12:14:54.244Z,23.90
2023-02-15T12:17:49.314Z,28.02
2023-02-15T12:20:16.319Z,27.27
2023-02-15T12:23:03.595Z,28.17
2023-02-15T12:25:43.498Z,27.23
2023-02-15T12:28:27.869Z,28.30
2023-02-15T12:33:46.261Z,28.13
2023-02-15T12:36:25.655Z,28.60
2023-02-15T12:39:14.481Z,27.80
2023-02-15T12:42:00.548Z,27.20
2023-02-15T12:44:31.155Z,27.35
2023-02-15T12:46:59.646Z,27.20
2023-02-15T12:49:28.320Z,26.30
2023-02-15T12:52:03.417Z,26.83
2023-02-15T12:54:36.898Z,26.40
2023-02-15T12:57:22.548Z,26.13
2023-02-15T12:59:51.307Z,26.52
2023-02-15T13:02:28.517Z,26.60
2023-02-15T13:04:57.716Z,27.95
2023-02-15T13:07:30.746Z,26.20
2023-02-15T13:09:58.224Z,27.02
2023-02-15T13:12:31.758Z,27.55
2023-02-15T13:15:00.254Z,27.70
2023-02-15T13:17:32.890Z,27.35
2023-02-15T13:20:10.506Z,27.45
2023-02-15T13:22:46.070Z,27.63
2023-02-15T13:25:18.802Z,29.10
2023-02-15T13:27:47.622Z,28.08
2023-02-15T13:30:27.374Z,27.38
2023-02-15T13:33:00.716Z,29.05
2023-02-15T13:35:38.074Z,27.87
2023-02-15T13:38:23.664Z,28.40
2023-02-15T13:41:01.603Z,29.42
2023-02-15T13:43:59.632Z,29.05
2023-02-15T13:46:26.508Z,29.58
2023-02-15T13:48:59.675Z,29.45
2023-02-15T13:51:54.961Z,30.50
2023-02-15T13:54:30.593Z,29.95
2023-02-15T13:57:09.661Z,29.35
2023-02-15T13:59:57.384Z,28.95
2023-02-15T14:03:01.170Z,29.17
2023-02-15T14:05:57.413Z,28.17
2023-02-15T14:08:55.132Z,27.40
2023-02-15T14:11:37.023Z,27.67
2023-02-15T14:14:41.105Z,27.92
2023-02-15T14:17:23.200Z,29.90
2023-02-15T14:19:58.739Z,29.83
2023-02-15T14:22:37.743Z,28.55
2023-02-15T14:25:16.952Z,29.40
2023-02-15T14:27:51.090Z,28.90
2023-02-15T14:30:27.894Z,30.63
2023-02-15T14:33:09.986Z,29.40
2023-02-15T14:35:38.222Z,29.30
2023-02-15T14:38:22.745Z,29.13
2023-02-15T14:41:03.052Z,31.83
2023-02-15T14:43:42.415Z,31.85
2023-02-15T14:46:22.899Z,30.20
2023-02-15T14:48:59.030Z,31.90
2023-02-15T14:51:44.294Z,29.85
2023-02-15T14:54:34.088Z,29.40
2023-02-15T14:57:04.054Z,29.75
2023-02-15T14:59:53.484Z,29.90
2023-02-15T15:02:25.495Z,29.08
2023-02-15T15:05:09.728Z,28.83
2023-02-15T15:07:53.579Z,29.25
2023-02-15T15:10:21.735Z,28.00
2023-02-15T15:12:54.226Z,27.00
2023-02-15T15:15:32.920Z,28.30
2023-02-15T15:18:09.763Z,26.75
2023-02-15T15:20:45.893Z,27.52
2023-02-15T15:23:15.730Z,28.52
2023-02-15T15:25:51.101Z,27.83
2023-02-15T15:28:36.329Z,28.27
2023-02-15T15:31:36.339Z,28.35
2023-02-15T15:34:24.793Z,28.30
2023-02-15T15:37:33.052Z,29.25
2023-02-15T15:40:40.979Z,30.42
2023-02-15T15:43:29.019Z,29.85
2023-02-15T15:46:12.482Z,32.08
2023-02-15T15:48:43.294Z,36.58
2023-02-15T15:51:20.293Z,38.25
2023-02-15T15:53:52.336Z,36.15
2023-02-15T15:56:24.024Z,32.88
2023-02-15T15:58:57.370Z,40.03
2023-02-15T16:01:37.084Z,39.95
2023-02-15T16:04:04.122Z,38.42
2023-02-15T16:06:37.298Z,38.80
2023-02-15T16:09:25.814Z,29.13
2023-02-15T16:12:06.876Z,36.08
2023-02-15T16:14:38.234Z,37.53
2023-02-15T16:17:16.636Z,30.13
2023-02-15T16:19:44.855Z,30.65
2023-02-15T16:22:22.383Z,31.17
2023-02-15T16:25:23.217Z,31.08
2023-02-15T16:27:50.281Z,31.40
2023-02-15T16:30:38.096Z,32.08
2023-02-15T16:33:10.760Z,31.67
2023-02-15T16:35:41.099Z,33.45
2023-02-15T16:38:12.211Z,31.77
2023-02-15T16:40:46.521Z,32.55
2023-02-15T16:43:18.462Z,31.80
2023-02-15T16:45:45.831Z,32.38
2023-02-15T16:48:21.905Z,33.45
2023-02-15T16:50:52.689Z,31.08
2023-02-15T16:53:28.533Z,31.83
2023-02-15T16:56:01.276Z,32.20
2023-02-15T17:01:00.913Z,36.40
2023-02-15T17:03:28.489Z,36.35
2023-02-15T17:06:00.808Z,38.60
2023-02-15T17:08:30.813Z,45.60
2023-02-15T17:11:01.031Z,48.85
2023-02-15T17:13:29.633Z,50.42
2023-02-15T17:16:03.057Z,48.60
2023-02-15T17:21:01.633Z,30.95
2023-02-15T17:23:44.492Z,30.00
2023-02-15T17:26:19.784Z,29.38
2023-02-15T17:28:59.117Z,30.42
2023-02-15T17:31:30.562Z,33.70
2023-02-15T17:33:59.419Z,30.17
2023-02-15T17:36:30.403Z,30.70
2023-02-15T17:39:00.363Z,37.00
2023-02-15T17:41:31.520Z,45.95
2023-02-15T17:43:58.860Z,54.72
2023-02-15T17:46:27.357Z,67.15
2023-02-15T17:48:56.195Z,70.70
2023-02-15T17:51:24.164Z,66.50
2023-02-15T17:54:10.242Z,53.22
2023-02-15T17:56:38.795Z,45.53
2023-02-15T17:59:11.387Z,42.38
2023-02-15T18:02:06.661Z,37.75
2023-02-15T18:04:53.355Z,37.25
2023-02-15T18:07:38.707Z,32.33
2023-02-15T18:10:35.998Z,31.35
2023-02-15T18:13:03.260Z,32.67
2023-02-15T18:15:30.569Z,33.55
2023-02-15T18:17:57.710Z,31.73
2023-02-15T18:20:29.362Z,45.58
2023-02-15T18:22:56.427Z,37.83
2023-02-15T18:25:25.737Z,41.75
2023-02-15T18:27:55.047Z,38.75
2023-02-15T18:30:25.655Z,33.10
2023-02-15T18:32:56.766Z,34.08
2023-02-15T18:35:26.756Z,37.38
2023-02-15T18:37:54.413Z,34.72
2023-02-15T18:40:24.828Z,33.88
2023-02-15T18:42:51.870Z,32.42
2023-02-15T18:45:22.426Z,31.95
2023-02-15T18:47:49.766Z,30.65
2023-02-15T18:50:19.555Z,31.60
2023-02-15T18:52:48.871Z,32.00
2023-02-15T18:55:28.021Z,31.35
2023-02-15T18:57:56.776Z,31.70
2023-02-15T19:00:32.883Z,32.08
2023-02-15T19:03:02.236Z,34.13
2023-02-15T19:05:31.082Z,31.63
2023-02-15T19:08:00.355Z,32.00
2023-02-15T19:10:30.527Z,31.95
2023-02-15T19:12:57.871Z,32.58
2023-02-15T19:15:32.697Z,30.88
2023-02-15T19:17:59.861Z,31.42
2023-02-15T19:20:42.403Z,30.90
2023-02-15T19:23:19.408Z,30.17
2023-02-15T19:25:48.460Z,29.17
2023-02-15T19:28:19.827Z,29.25
2023-02-15T19:30:46.819Z,29.65
2023-02-15T19:33:19.608Z,28.90
2023-02-15T19:35:51.911Z,30.80
2023-02-15T19:38:22.286Z,30.83
2023-02-15T19:40:49.312Z,30.48
2023-02-15T19:43:26.053Z,29.60
2023-02-15T19:45:53.736Z,30.48
2023-02-15T19:48:20.796Z,31.05
2023-02-15T19:50:48.805Z,32.20
2023-02-15T19:53:24.686Z,30.67
2023-02-15T19:55:52.575Z,31.17
2023-02-15T19:58:20.854Z,30.15
2023-02-15T20:00:49.379Z,31.50
2023-02-15T20:03:17.278Z,31.35
2023-02-15T20:05:44.599Z,32.38
2023-02-15T20:08:21.064Z,35.17
2023-02-15T20:10:48.387Z,38.20
2023-02-15T20:13:17.871Z,31.60
2023-02-15T20:15:46.000Z,29.92
2023-02-15T20:18:13.339Z,29.23
2023-02-15T20:20:44.389Z,31.05
2023-02-15T20:23:25.167Z,30.45
2023-02-15T20:25:53.157Z,31.58
2023-02-15T20:28:26.225Z,32.03
2023-02-15T20:30:53.427Z,31.77
2023-02-15T20:33:22.900Z,31.08
2023-02-15T20:35:50.608Z,31.10
2023-02-15T20:38:28.176Z,29.55
2023-02-15T20:41:15.271Z,30.70
2023-02-15T20:43:42.480Z,30.95
2023-02-15T20:46:09.600Z,30.98
2023-02-15T20:48:36.806Z,31.35
2023-02-15T20:51:04.704Z,32.63
2023-02-15T20:53:32.033Z,35.67
2023-02-15T20:55:59.037Z,35.10
2023-02-15T20:58:28.662Z,35.67
2023-02-15T21:00:58.649Z,35.70
2023-02-15T21:03:30.812Z,34.08
2023-02-15T21:05:58.976Z,35.15
2023-02-15T21:08:26.738Z,35.70
2023-02-15T21:10:54.685Z,38.00
2023-02-15T21:13:23.198Z,37.90
2023-02-15T21:15:51.959Z,38.72
2023-02-15T21:18:23.774Z,40.35
2023-02-15T21:20:55.496Z,38.92
2023-02-15T21:23:27.144Z,35.80
2023-02-15T21:25:56.248Z,38.72
2023-02-15T21:28:25.497Z,38.53
2023-02-15T21:30:53.516Z,38.95
2023-02-15T21:33:20.560Z,38.92
2023-02-15T21:35:50.486Z,37.38
2023-02-15T21:38:20.921Z,37.38
2023-02-15T21:40:48.676Z,36.10
2023-02-15T21:43:36.875Z,35.05
2023-02-15T21:46:32.396Z,35.38
2023-02-15T21:48:59.436Z,37.78
2023-02-15T21:51:45.003Z,35.65
2023-02-15T21:54:16.917Z,38.58
2023-02-15T21:56:43.856Z,44.03
2023-02-15T21:59:12.485Z,44.67
2023-02-15T22:01:42.506Z,42.20
2023-02-15T22:04:15.017Z,42.17
2023-02-15T22:06:42.061Z,39.55
2023-02-15T22:09:19.929Z,40.88
2023-02-15T22:11:47.684Z,41.50
2023-02-15T22:14:40.222Z,37.25
2023-02-15T22:17:22.079Z,39.88
2023-02-15T22:19:50.076Z,39.08
2023-02-15T22:22:17.615Z,37.60
2023-02-15T22:24:45.340Z,37.88
2023-02-15T22:27:25.774Z,37.92
2023-02-15T22:29:53.360Z,38.45
2023-02-15T22:32:23.471Z,38.58
2023-02-15T22:34:52.103Z,38.97
2023-02-15T22:37:19.608Z,37.97
2023-02-15T22:39:46.716Z,38.70
2023-02-15T22:42:33.934Z,37.00
2023-02-15T22:45:00.931Z,37.95
2023-02-15T22:47:29.841Z,38.13
2023-02-15T22:49:56.900Z,39.45
2023-02-15T22:52:24.100Z,38.50
2023-02-15T22:54:51.067Z,39.63
2023-02-15T22:57:30.580Z,40.60
2023-02-15T22:59:58.589Z,39.85
2023-02-15T23:02:25.582Z,41.28
2023-02-15T23:04:53.811Z,42.95
2023-02-15T23:07:22.545Z,43.53
2023-02-15T23:09:49.781Z,45.08
2023-02-15T23:12:28.863Z,45.47
2023-02-15T23:14:57.375Z,45.08
2023-02-15T23:17:24.322Z,44.67
2023-02-15T23:19:51.310Z,42.35
2023-02-15T23:22:18.841Z,42.75
2023-02-15T23:24:51.929Z,40.15
2023-02-15T23:27:38.180Z,39.50
2023-02-15T23:30:12.264Z,37.35
2023-02-15T23:32:39.664Z,36.38
2023-02-15T23:35:24.810Z,36.25
2023-02-15T23:37:51.776Z,34.35
2023-02-15T23:40:39.830Z,35.50
2023-02-15T23:43:10.451Z,35.85
2023-02-15T23:45:39.615Z,36.15
2023-02-15T23:48:30.583Z,36.22
2023-02-15T23:50:59.317Z,36.05
2023-02-15T23:53:26.477Z,36.95
2023-02-15T23:55:53.901Z,36.88
2023-02-15T23:58:25.490Z,38.20
